createdAt,value
2018-06-12T00:02:10.793Z,22.40
2018-06-12T00:04:38.866Z,22.40
2018-06-12T00:07:06.944Z,22.40
2018-06-12T00:09:35.012Z,22.40
2018-06-12T00:12:03.090Z,22.50
2018-06-12T00:14:31.167Z,22.50
2018-06-12T00:16:59.296Z,22.50
2018-06-12T00:19:27.584Z,22.30
2018-06-12T00:21:55.676Z,22.20
2018-06-12T00:24:23.876Z,22.20
2018-06-12T00:26:51.968Z,21.90
2018-06-12T00:29:20.062Z,21.90
2018-06-12T00:31:48.135Z,21.70
2018-06-12T00:34:16.228Z,21.80
2018-06-12T00:36:44.335Z,21.80
2018-06-12T00:39:12.415Z,21.80
2018-06-12T00:41:41.439Z,21.80
2018-06-12T00:44:09.569Z,21.40
2018-06-12T00:46:37.681Z,21.60
2018-06-12T00:49:05.831Z,21.70
2018-06-12T00:51:33.981Z,21.50
2018-06-12T00:54:02.117Z,21.60
2018-06-12T00:56:41.660Z,21.70
2018-06-12T00:59:09.787Z,21.70
2018-06-12T01:01:37.922Z,21.90
2018-06-12T01:04:06.247Z,22.00
2018-06-12T01:06:34.365Z,22.00
2018-06-12T01:09:02.533Z,21.90
2018-06-12T01:11:30.656Z,22.00
2018-06-12T01:13:58.780Z,22.10
2018-06-12T01:16:26.894Z,21.80
2018-06-12T01:18:55.136Z,21.80
2018-06-12T01:21:23.272Z,21.80
2018-06-12T01:23:51.416Z,22.00
2018-06-12T01:26:19.560Z,21.80
2018-06-12T01:28:47.655Z,21.40
2018-06-12T01:31:15.747Z,21.50
2018-06-12T01:33:43.839Z,21.40
2018-06-12T01:36:11.927Z,21.60
2018-06-12T01:38:40.025Z,21.40
2018-06-12T01:41:08.207Z,21.50
2018-06-12T01:43:36.303Z,21.70
2018-06-12T01:46:04.387Z,21.70
2018-06-12T01:48:32.489Z,21.90
2018-06-12T01:51:00.603Z,21.70
2018-06-12T01:53:28.779Z,21.50
2018-06-12T01:55:56.870Z,21.50
2018-06-12T01:58:25.454Z,21.30
2018-06-12T02:00:53.564Z,21.20
2018-06-12T02:03:21.665Z,21.00
2018-06-12T02:05:49.759Z,21.10
2018-06-12T02:08:17.852Z,21.10
2018-06-12T02:10:45.974Z,20.80
2018-06-12T02:13:14.047Z,21.00
2018-06-12T02:15:42.140Z,21.40
2018-06-12T02:18:10.257Z,21.50
2018-06-12T02:20:38.346Z,21.50
2018-06-12T02:25:34.483Z,21.50
2018-06-12T02:28:02.563Z,21.60
2018-06-12T02:30:30.685Z,21.60
2018-06-12T02:32:58.928Z,21.70
2018-06-12T02:35:27.028Z,21.70
2018-06-12T02:37:55.109Z,21.50
2018-06-12T02:40:23.202Z,21.50
2018-06-12T02:45:19.192Z,21.40
2018-06-12T02:47:47.278Z,21.30
2018-06-12T02:50:15.379Z,21.30
2018-06-12T02:52:43.460Z,21.40
2018-06-12T02:55:11.555Z,21.30
2018-06-12T02:57:39.656Z,21.30
2018-06-12T03:00:07.763Z,21.40
2018-06-12T03:02:35.860Z,21.20
2018-06-12T03:05:03.952Z,21.20
2018-06-12T03:07:32.072Z,21.20
2018-06-12T03:10:00.163Z,21.30
2018-06-12T03:12:28.277Z,21.40
2018-06-12T03:14:56.378Z,21.20
2018-06-12T03:17:24.479Z,21.10
2018-06-12T03:19:52.567Z,21.00
2018-06-12T03:22:20.663Z,21.10
2018-06-12T03:24:48.760Z,21.10
2018-06-12T03:27:16.942Z,20.90
2018-06-12T03:29:45.029Z,21.00
2018-06-12T03:32:13.115Z,21.20
2018-06-12T03:34:41.716Z,21.20
2018-06-12T03:37:09.807Z,21.10
2018-06-12T03:39:37.920Z,21.20
2018-06-12T03:42:06.016Z,21.10
2018-06-12T03:44:34.124Z,20.80
2018-06-12T03:47:02.232Z,20.90
2018-06-12T03:49:30.315Z,21.00
2018-06-12T03:51:58.404Z,20.90
2018-06-12T03:54:26.492Z,20.90
2018-06-12T03:56:54.613Z,21.00
2018-06-12T03:59:22.687Z,21.00
2018-06-12T04:01:50.792Z,20.90
2018-06-12T04:06:46.775Z,20.90
2018-06-12T04:09:14.867Z,20.80
2018-06-12T04:11:42.966Z,20.80
2018-06-12T04:14:11.108Z,20.90
2018-06-12T04:16:39.191Z,20.90
2018-06-12T04:19:07.710Z,21.10
2018-06-12T04:21:36.196Z,21.00
2018-06-12T04:24:04.288Z,21.00
2018-06-12T04:26:32.422Z,21.00
2018-06-12T04:29:00.532Z,21.10
2018-06-12T04:31:28.615Z,21.00
2018-06-12T04:33:56.716Z,21.00
2018-06-12T04:36:24.820Z,21.10
2018-06-12T04:38:52.938Z,21.00
2018-06-12T04:41:21.039Z,21.00
2018-06-12T04:43:49.123Z,20.90
2018-06-12T04:46:17.204Z,21.00
2018-06-12T04:48:45.299Z,20.90
2018-06-12T04:51:13.371Z,20.80
2018-06-12T04:53:41.982Z,20.80
2018-06-12T04:56:10.055Z,20.60
2018-06-12T04:58:38.177Z,20.90
2018-06-12T05:01:06.260Z,20.70
2018-06-12T05:03:34.419Z,20.70
2018-06-12T05:06:02.536Z,20.70
2018-06-12T05:08:30.609Z,21.00
2018-06-12T05:10:58.724Z,21.20
2018-06-12T05:13:26.816Z,21.20
2018-06-12T05:15:54.920Z,21.30
2018-06-12T05:18:23.015Z,21.30
2018-06-12T05:20:51.116Z,21.20
2018-06-12T05:23:19.196Z,21.30
2018-06-12T05:25:47.281Z,21.30
2018-06-12T05:28:15.443Z,21.60
2018-06-12T05:30:43.535Z,21.80
2018-06-12T05:33:11.612Z,21.60
2018-06-12T05:35:39.709Z,21.80
2018-06-12T05:38:07.794Z,21.90
2018-06-12T05:40:35.900Z,22.10
2018-06-12T05:43:04.104Z,22.20
2018-06-12T05:45:32.183Z,22.30
2018-06-12T05:48:00.264Z,22.40
2018-06-12T05:50:28.380Z,22.40
2018-06-12T05:52:56.711Z,22.60
2018-06-12T05:55:25.332Z,22.70
2018-06-12T05:57:53.544Z,22.80
2018-06-12T06:00:21.739Z,22.80
2018-06-12T06:02:49.887Z,22.70
2018-06-12T06:05:17.953Z,22.60
2018-06-12T06:07:46.055Z,22.50
2018-06-12T06:10:14.141Z,22.60
2018-06-12T06:12:42.233Z,22.40
2018-06-12T06:15:10.311Z,22.10
2018-06-12T06:20:07.223Z,22.10
2018-06-12T06:22:35.322Z,22.10
2018-06-12T06:25:03.393Z,22.20
2018-06-12T06:27:31.639Z,22.30
2018-06-12T06:29:59.716Z,22.50
2018-06-12T06:32:27.808Z,22.80
2018-06-12T06:34:55.892Z,22.50
2018-06-12T06:37:25.001Z,23.00
2018-06-12T06:39:53.556Z,23.40
2018-06-12T06:42:21.648Z,23.50
2018-06-12T06:44:49.738Z,23.70
2018-06-12T06:47:17.844Z,24.00
2018-06-12T06:49:45.937Z,24.40
2018-06-12T06:52:14.060Z,24.30
2018-06-12T06:54:42.231Z,24.10
2018-06-12T06:57:10.304Z,23.90
2018-06-12T06:59:38.389Z,23.80
2018-06-12T07:02:06.451Z,23.70
2018-06-12T07:04:34.532Z,23.90
2018-06-12T07:07:02.611Z,24.10
2018-06-12T07:09:30.698Z,24.10
2018-06-12T07:11:58.792Z,24.40
2018-06-12T07:14:26.984Z,24.70
2018-06-12T07:16:55.064Z,25.00
2018-06-12T07:19:23.207Z,25.20
2018-06-12T07:21:51.375Z,25.20
2018-06-12T07:24:19.566Z,25.00
2018-06-12T07:26:47.712Z,24.40
2018-06-12T07:29:15.794Z,24.30
2018-06-12T07:31:43.874Z,24.30
2018-06-12T07:34:11.951Z,24.10
2018-06-12T07:36:40.103Z,24.10
2018-06-12T07:39:08.724Z,24.10
2018-06-12T07:41:36.799Z,23.90
2018-06-12T07:44:04.918Z,23.90
2018-06-12T07:46:33.007Z,23.90
2018-06-12T07:49:01.132Z,24.20
2018-06-12T07:51:29.311Z,24.30
2018-06-12T07:53:57.407Z,24.20
2018-06-12T07:56:25.492Z,24.30
2018-06-12T07:58:53.595Z,24.30
2018-06-12T08:01:21.770Z,24.60
2018-06-12T08:03:50.876Z,24.80
2018-06-12T08:06:18.956Z,25.30
2018-06-12T08:08:47.047Z,25.70
2018-06-12T08:11:15.224Z,26.00
2018-06-12T08:13:43.304Z,25.90
2018-06-12T08:16:11.427Z,25.80
2018-06-12T08:18:39.509Z,25.60
2018-06-12T08:21:07.689Z,25.50
2018-06-12T08:23:35.783Z,25.10
2018-06-12T08:26:03.888Z,25.10
2018-06-12T08:28:31.983Z,25.50
2018-06-12T08:31:00.071Z,25.40
2018-06-12T08:33:28.164Z,25.30
2018-06-12T08:35:56.261Z,25.40
2018-06-12T08:38:24.328Z,25.10
2018-06-12T08:40:52.460Z,25.60
2018-06-12T08:43:27.018Z,25.70
2018-06-12T08:45:55.584Z,25.80
2018-06-12T08:48:23.674Z,25.80
2018-06-12T08:50:51.984Z,25.80
2018-06-12T08:53:20.060Z,25.70
2018-06-12T08:55:48.147Z,25.80
2018-06-12T08:58:16.213Z,26.10
2018-06-12T09:00:44.451Z,26.50
2018-06-12T09:03:12.534Z,27.00
2018-06-12T09:05:40.603Z,27.60
2018-06-12T09:08:08.687Z,28.50
2018-06-12T09:10:36.806Z,29.00
2018-06-12T09:13:04.888Z,29.10
2018-06-12T09:15:32.984Z,29.40
2018-06-12T09:18:01.071Z,29.30
2018-06-12T09:22:57.044Z,29.50
2018-06-12T09:25:25.120Z,29.80
2018-06-12T09:27:53.197Z,30.40
2018-06-12T09:30:22.075Z,30.50
2018-06-12T09:32:50.251Z,30.30
2018-06-12T09:35:18.328Z,29.90
2018-06-12T09:37:46.416Z,29.30
2018-06-12T09:40:14.484Z,28.70
2018-06-12T09:42:42.570Z,28.60
2018-06-12T09:45:10.651Z,28.70
2018-06-12T09:47:38.739Z,29.00
2018-06-12T09:50:06.816Z,29.40
2018-06-12T09:52:34.908Z,29.40
2018-06-12T09:55:02.992Z,29.10
2018-06-12T09:57:31.092Z,28.60
2018-06-12T09:59:59.168Z,28.30
2018-06-12T10:02:27.262Z,28.50
2018-06-12T10:04:55.332Z,28.90
2018-06-12T10:07:23.420Z,29.80
2018-06-12T10:09:51.493Z,30.50
2018-06-12T10:12:19.583Z,31.00
2018-06-12T10:14:47.668Z,31.80
2018-06-12T10:17:15.747Z,32.50
2018-06-12T10:19:43.967Z,32.90
2018-06-12T10:22:12.038Z,32.30
2018-06-12T10:24:40.104Z,32.30
2018-06-12T10:27:08.180Z,33.80
2018-06-12T10:29:36.259Z,35.00
2018-06-12T10:32:04.484Z,35.90
2018-06-12T10:34:32.568Z,35.90
2018-06-12T10:37:00.789Z,36.60
2018-06-12T10:39:28.864Z,36.90
2018-06-12T10:41:56.965Z,36.80
2018-06-12T10:44:25.074Z,35.90
2018-06-12T10:46:53.176Z,34.80
2018-06-12T10:49:21.271Z,33.50
2018-06-12T10:51:49.370Z,32.70
2018-06-12T10:54:17.477Z,32.10
2018-06-12T10:56:45.557Z,31.80
2018-06-12T10:59:13.652Z,30.90
2018-06-12T11:01:42.643Z,30.60
2018-06-12T11:04:10.752Z,30.20
2018-06-12T11:06:38.853Z,30.10
2018-06-12T11:09:06.954Z,30.40
2018-06-12T11:11:35.095Z,30.10
2018-06-12T11:14:03.187Z,29.50
2018-06-12T11:16:31.288Z,29.20
2018-06-12T11:18:59.387Z,29.50
2018-06-12T11:21:27.477Z,29.90
2018-06-12T11:23:55.576Z,30.70
2018-06-12T11:26:23.671Z,30.60
2018-06-12T11:28:51.778Z,30.70
2018-06-12T11:31:19.864Z,31.10
2018-06-12T11:33:47.951Z,31.70
2018-06-12T11:36:16.040Z,31.80
2018-06-12T11:38:44.155Z,32.10
2018-06-12T11:41:12.244Z,31.80
2018-06-12T11:43:40.335Z,31.40
2018-06-12T11:46:08.417Z,30.90
2018-06-12T11:48:36.496Z,30.70
2018-06-12T11:51:04.628Z,30.40
2018-06-12T11:53:32.744Z,30.20
2018-06-12T11:56:00.845Z,30.10
2018-06-12T11:58:30.185Z,30.00
2018-06-12T12:03:26.130Z,30.10
2018-06-12T12:05:54.231Z,30.00
2018-06-12T12:08:22.386Z,30.10
2018-06-12T12:10:50.472Z,29.90
2018-06-12T12:13:18.552Z,30.00
2018-06-12T12:15:46.644Z,30.20
2018-06-12T12:18:14.762Z,29.90
2018-06-12T12:20:42.842Z,30.10
2018-06-12T12:23:10.917Z,30.10
2018-06-12T12:25:38.977Z,30.20
2018-06-12T12:28:07.058Z,30.20
2018-06-12T12:30:35.344Z,29.90
2018-06-12T12:33:03.502Z,30.00
2018-06-12T12:35:32.192Z,30.00
2018-06-12T12:38:00.264Z,29.70
2018-06-12T12:40:28.369Z,29.70
2018-06-12T12:42:56.506Z,29.80
2018-06-12T12:45:24.576Z,29.80
2018-06-12T12:47:52.648Z,29.40
2018-06-12T12:50:20.734Z,29.50
2018-06-12T12:52:48.804Z,29.50
2018-06-12T12:55:16.893Z,29.50
2018-06-12T12:57:45.070Z,29.50
2018-06-12T13:00:13.145Z,29.60
2018-06-12T13:02:41.220Z,29.40
2018-06-12T13:05:09.325Z,29.20
2018-06-12T13:07:37.394Z,29.20
2018-06-12T13:10:05.509Z,29.20
2018-06-12T13:12:33.578Z,28.90
2018-06-12T13:15:01.674Z,28.70
2018-06-12T13:17:29.757Z,28.50
2018-06-12T13:19:58.112Z,28.30
2018-06-12T13:22:26.185Z,28.30
2018-06-12T13:24:54.287Z,28.50
2018-06-12T13:27:22.376Z,28.50
2018-06-12T13:29:50.496Z,28.60
2018-06-12T13:32:18.567Z,28.20
2018-06-12T13:34:46.655Z,27.90
2018-06-12T13:37:14.727Z,27.70
2018-06-12T13:44:44.870Z,27.40
2018-06-12T13:47:45.304Z,27.20
2018-06-12T13:53:56.746Z,27.30
2018-06-12T13:56:24.872Z,27.00
2018-06-12T13:58:52.983Z,26.80
2018-06-12T14:01:21.127Z,26.70
2018-06-12T14:03:49.222Z,26.60
2018-06-12T14:06:17.329Z,26.70
2018-06-12T14:08:45.417Z,26.50
2018-06-12T14:11:13.567Z,26.50
2018-06-12T14:13:41.713Z,26.70
2018-06-12T14:16:09.753Z,26.40
2018-06-12T14:18:37.846Z,26.30
2018-06-12T14:21:05.940Z,26.30
2018-06-12T14:23:34.390Z,26.00
2018-06-12T14:26:02.496Z,25.90
2018-06-12T14:28:30.594Z,25.80
2018-06-12T14:30:58.731Z,26.00
2018-06-12T14:33:27.792Z,25.90
2018-06-12T14:35:55.901Z,25.80
2018-06-12T14:38:24.015Z,25.80
2018-06-12T14:40:52.115Z,25.70
2018-06-12T14:43:20.205Z,25.40
2018-06-12T14:45:48.306Z,25.40
2018-06-12T14:48:16.550Z,25.10
2018-06-12T14:50:44.620Z,25.00
2018-06-12T14:53:12.732Z,24.70
2018-06-12T14:55:40.908Z,24.70
2018-06-12T14:58:09.000Z,24.80
2018-06-12T15:00:37.100Z,24.60
2018-06-12T15:03:05.234Z,24.40
2018-06-12T15:05:33.329Z,24.30
2018-06-12T15:08:01.431Z,24.20
2018-06-12T15:10:29.524Z,24.30
2018-06-12T15:12:57.609Z,24.30
2018-06-12T15:15:30.570Z,24.10
2018-06-12T15:17:58.665Z,23.90
2018-06-12T15:20:26.751Z,23.80
2018-06-12T15:25:22.814Z,23.60
2018-06-12T15:27:50.889Z,23.60
2018-06-12T15:30:18.972Z,23.50
2018-06-12T15:32:47.060Z,23.60
2018-06-12T15:35:15.253Z,23.50
2018-06-12T15:37:43.313Z,23.40
2018-06-12T15:40:11.380Z,23.30
2018-06-12T15:42:39.494Z,23.60
2018-06-12T15:45:07.589Z,23.70
2018-06-12T15:47:35.685Z,23.80
2018-06-12T15:50:03.796Z,23.80
2018-06-12T15:52:31.902Z,23.90
2018-06-12T15:54:59.989Z,23.80
2018-06-12T15:57:28.080Z,24.00
2018-06-12T15:59:56.210Z,23.90
2018-06-12T16:02:24.329Z,23.80
2018-06-12T16:04:52.435Z,23.90
2018-06-12T16:07:20.537Z,24.20
2018-06-12T16:09:48.627Z,24.20
2018-06-12T16:12:16.761Z,24.10
2018-06-12T16:14:44.849Z,24.30
2018-06-12T16:17:12.964Z,24.20
2018-06-12T16:19:41.069Z,24.30
2018-06-12T16:22:09.168Z,24.50
2018-06-12T16:24:37.271Z,24.70
2018-06-12T16:27:05.363Z,24.80
2018-06-12T16:29:33.489Z,25.00
2018-06-12T16:32:01.582Z,25.20
2018-06-12T16:34:29.673Z,25.20
2018-06-12T16:36:57.788Z,25.20
2018-06-12T16:39:25.887Z,25.60
2018-06-12T16:41:53.976Z,25.30
2018-06-12T16:44:22.098Z,25.00
2018-06-12T16:46:50.187Z,25.10
2018-06-12T16:49:18.283Z,25.10
2018-06-12T16:51:46.421Z,25.00
2018-06-12T16:54:14.533Z,25.00
2018-06-12T16:56:43.719Z,25.20
2018-06-12T16:59:11.731Z,25.20
2018-06-12T17:01:39.823Z,25.20
2018-06-12T17:04:07.897Z,24.90
2018-06-12T17:06:36.024Z,24.90
2018-06-12T17:09:06.189Z,24.90
2018-06-12T17:11:34.324Z,24.80
2018-06-12T17:14:02.543Z,24.90
2018-06-12T17:16:30.752Z,24.90
2018-06-12T17:18:58.719Z,24.90
2018-06-12T17:21:26.884Z,25.00
2018-06-12T17:23:54.965Z,24.80
2018-06-12T17:26:23.056Z,24.80
2018-06-12T17:28:51.136Z,24.80
2018-06-12T17:31:19.217Z,24.80
2018-06-12T17:33:47.312Z,24.90
2018-06-12T17:36:15.435Z,24.90
2018-06-12T17:38:43.531Z,24.90
2018-06-12T17:41:11.654Z,24.80
2018-06-12T17:43:39.744Z,24.90
2018-06-12T17:46:07.831Z,24.70
2018-06-12T17:48:35.920Z,24.70
2018-06-12T17:51:04.003Z,24.70
2018-06-12T17:56:00.030Z,24.40
2018-06-12T17:58:28.120Z,24.60
2018-06-12T18:00:56.225Z,24.50
2018-06-12T18:03:24.313Z,24.70
2018-06-12T18:05:52.404Z,24.50
2018-06-12T18:08:20.512Z,24.60
2018-06-12T18:10:48.854Z,24.30
2018-06-12T18:13:16.944Z,24.00
2018-06-12T18:18:13.035Z,23.90
2018-06-12T18:20:45.369Z,24.00
2018-06-12T18:25:41.737Z,23.90
2018-06-12T18:28:09.835Z,23.90
2018-06-12T18:30:37.924Z,23.90
2018-06-12T18:33:06.008Z,23.70
2018-06-12T18:35:34.083Z,23.70
2018-06-12T18:38:02.177Z,23.60
2018-06-12T18:40:30.260Z,23.70
2018-06-12T18:42:58.383Z,23.70
2018-06-12T18:45:26.462Z,23.60
2018-06-12T18:47:54.563Z,23.40
2018-06-12T18:50:23.231Z,23.40
2018-06-12T18:55:19.307Z,23.50
2018-06-12T18:57:47.391Z,23.40
2018-06-12T19:00:15.484Z,23.40
2018-06-12T19:02:43.715Z,23.40
2018-06-12T19:05:11.796Z,23.20
2018-06-12T19:07:39.889Z,23.20
2018-06-12T19:10:07.983Z,23.10
2018-06-12T19:12:36.063Z,23.00
2018-06-12T19:15:04.144Z,23.00
2018-06-12T19:17:33.192Z,23.20
2018-06-12T19:20:01.291Z,23.00
2018-06-12T19:22:29.368Z,23.00
2018-06-12T19:24:58.458Z,22.90
2018-06-12T19:27:26.500Z,23.00
2018-06-12T19:29:54.684Z,22.90
2018-06-12T19:32:22.783Z,22.80
2018-06-12T19:34:50.876Z,22.90
2018-06-12T19:37:19.038Z,23.00
2018-06-12T19:39:47.063Z,22.90
2018-06-12T19:42:15.133Z,22.80
2018-06-12T19:44:43.860Z,22.70
2018-06-12T19:47:11.942Z,22.70
2018-06-12T19:49:40.028Z,22.70
2018-06-12T19:52:08.138Z,22.70
2018-06-12T19:54:36.283Z,22.60
2018-06-12T19:57:04.364Z,22.70
2018-06-12T19:59:32.508Z,22.60
2018-06-12T20:02:00.524Z,22.60
2018-06-12T20:04:28.611Z,22.60
2018-06-12T20:06:56.709Z,22.50
2018-06-12T20:09:24.787Z,22.50
2018-06-12T20:11:52.868Z,22.50
2018-06-12T20:14:25.424Z,22.50
2018-06-12T20:17:07.634Z,22.30
2018-06-12T20:19:35.749Z,22.50
2018-06-12T20:22:03.812Z,22.40
2018-06-12T20:24:31.900Z,22.40
2018-06-12T20:26:59.997Z,22.20
2018-06-12T20:31:55.959Z,22.30
2018-06-12T20:34:24.075Z,22.10
2018-06-12T20:36:53.191Z,22.10
2018-06-12T20:39:21.290Z,22.10
2018-06-12T20:41:49.388Z,22.10
2018-06-12T20:44:17.541Z,22.10
2018-06-12T20:46:45.664Z,22.00
2018-06-12T20:49:13.727Z,22.10
2018-06-12T20:51:41.843Z,21.90
2018-06-12T20:54:09.964Z,22.10
2018-06-12T20:56:38.045Z,21.90
2018-06-12T20:59:06.116Z,21.90
2018-06-12T21:01:34.196Z,21.80
2018-06-12T21:04:02.283Z,21.90
2018-06-12T21:06:30.374Z,21.90
2018-06-12T21:08:58.456Z,22.10
2018-06-12T21:11:26.540Z,22.00
2018-06-12T21:13:54.646Z,21.80
2018-06-12T21:16:22.739Z,21.80
2018-06-12T21:18:50.823Z,21.80
2018-06-12T21:21:19.764Z,21.60
2018-06-12T21:23:47.937Z,21.60
2018-06-12T21:26:16.107Z,21.70
2018-06-12T21:28:44.212Z,21.60
2018-06-12T21:31:12.283Z,21.50
2018-06-12T21:33:40.427Z,21.40
2018-06-12T21:36:08.493Z,21.50
2018-06-12T21:38:36.580Z,21.60
2018-06-12T21:41:04.662Z,21.70
2018-06-12T21:43:32.764Z,21.70
2018-06-12T21:46:00.870Z,21.70
2018-06-12T21:48:29.069Z,21.70
2018-06-12T21:50:57.244Z,21.60
2018-06-12T21:53:25.333Z,21.80
2018-06-12T21:55:53.436Z,21.60
2018-06-12T21:58:21.532Z,21.70
2018-06-12T22:00:49.635Z,21.60
2018-06-12T22:03:17.727Z,21.70
2018-06-12T22:05:45.822Z,21.80
2018-06-12T22:08:13.952Z,21.90
2018-06-12T22:10:42.127Z,21.90
2018-06-12T22:13:10.229Z,22.00
2018-06-12T22:15:38.321Z,22.00
2018-06-12T22:18:06.407Z,21.80
2018-06-12T22:20:34.522Z,21.80
2018-06-12T22:23:02.596Z,21.80
2018-06-12T22:25:30.696Z,21.80
2018-06-12T22:27:58.810Z,21.80
2018-06-12T22:30:26.910Z,21.70
2018-06-12T22:32:55.008Z,21.60
2018-06-12T22:35:23.087Z,21.50
2018-06-12T22:37:51.255Z,21.60
2018-06-12T22:40:19.268Z,21.60
2018-06-12T22:42:47.360Z,21.50
2018-06-12T22:45:15.459Z,21.60
2018-06-12T22:47:44.264Z,21.50
2018-06-12T22:50:12.365Z,21.50
2018-06-12T22:52:40.552Z,21.40
2018-06-12T22:55:08.676Z,21.60
2018-06-12T22:57:36.801Z,21.40
2018-06-12T23:00:04.945Z,21.30
2018-06-12T23:02:33.075Z,21.30
2018-06-12T23:05:01.190Z,21.30
2018-06-12T23:07:29.279Z,21.30
2018-06-12T23:09:57.379Z,21.20
2018-06-12T23:12:25.925Z,21.30
2018-06-12T23:14:54.013Z,21.20
2018-06-12T23:17:22.155Z,21.30
2018-06-12T23:20:01.737Z,21.20
2018-06-12T23:22:29.815Z,21.00
2018-06-12T23:24:57.912Z,20.80
2018-06-12T23:27:26.036Z,20.90
2018-06-12T23:29:54.176Z,20.90
2018-06-12T23:32:22.284Z,20.80
2018-06-12T23:34:50.375Z,20.70
2018-06-12T23:39:46.333Z,20.60
2018-06-12T23:42:14.457Z,20.70
2018-06-12T23:44:42.531Z,20.60
2018-06-12T23:47:10.614Z,20.50
2018-06-12T23:49:38.692Z,20.40
2018-06-12T23:52:06.787Z,20.40
2018-06-12T23:54:34.882Z,20.30
2018-06-12T23:57:02.992Z,20.20
2018-06-12T23:59:31.072Z,20.20
